Aeroporto :
LOGIN :

Iscrizione | Disclaimer

   EN    FR    IT 

 










Sommario :    VFR   VFR Marginale   IFR   IFR Intensivo   IFR Molto Intensivo
Visibilità : 
Base nubi : 
>= 8 km
>= 3000ft
5 / 8 km
1000 / 3000 ft
1500m / 5 km
500 / 1000 ft
800 / 1500m
200 / 500 ft
< 800m
< 200 ft
Simboli :   Temporali  Nebbia  Neve Forte  Precipitazioni Forti  Vento > 20 kt
SIGMETs :   Varie  Temporali  Ghiacco  Turbolenza  Onda orograficha  Ceneri Vulcaniche






- Altitudine del aeroporto : 242 ft
- Codice IATA : DUB


EIDW - Dublin

ULTIMO METAR :
  • 071030Z 17010KT 140V210 9999 FEW022 BKN250 13/02 Q1027 NOSIG

METARs OBSOLETI :
  • 071014Z 16009KT 120V180 9999 FEW022 BKN250 12/02 Q1027 NOSIG
  • 070930Z 13007KT 100V170 CAVOK 11/05 Q1027 NOSIG
  • 070900Z 13005KT 100V170 CAVOK 11/03 Q1027 NOSIG
  • 070830Z 16007KT 120V180 CAVOK 10/03 Q1027 NOSIG
  • 070800Z VRB03KT CAVOK 09/04 Q1027 NOSIG

TAF TAF EIDW
Valido dal 07 a 06 ore il 08 a 06 ore UTC


070500Z 0706/0806 20008KT 9999 FEW015
TEMPO 0706/0709 VRB03KT
BECMG 0709/0711 16010KT
BECMG 0714/0716 21010KT
BECMG 0800/0802 VRB03KT



MetMap, La meteo Aeronautica in un colpo d'occhio ! - Copyright ORBIFLY Dicembre 2007 - Disclaimer

ORBIFLY MET'MAP TEAM :

Programmazione e sviluppo : Alexandra Zaïnal
Concezione : Baudouin d'Aumeries
Aiuto per la programmazione : Marc-Olivier Méhu
Supporto tecnico e logistico : Manuel Goepfert
Aiuto per la traduzione : Arnaldo La Scala

Contatto : metmap@orbifly.com




FONTI E CREDITI :

   NOAA